createdAt,value
2022-07-31T00:00:41.971Z,98722.08
2022-07-31T00:03:43.889Z,98720.30
2022-07-31T00:06:45.733Z,98725.48
2022-07-31T00:09:53.301Z,98727.67
2022-07-31T00:12:56.286Z,98725.11
2022-07-31T00:15:57.956Z,98723.34
2022-07-31T00:18:59.738Z,98724.60
2022-07-31T00:22:01.393Z,98731.83
2022-07-31T00:25:03.470Z,98730.95
2022-07-31T00:28:06.709Z,98730.44
2022-07-31T00:31:08.541Z,98729.63
2022-07-31T00:34:11.389Z,98735.69
2022-07-31T00:37:13.291Z,98736.89
2022-07-31T00:40:16.695Z,98731.62
2022-07-31T00:43:19.262Z,98732.60
2022-07-31T00:46:21.066Z,98726.30
2022-07-31T00:49:25.085Z,98727.48
2022-07-31T00:52:26.816Z,98727.77
2022-07-31T00:55:28.685Z,98726.64
2022-07-31T00:58:30.394Z,98728.95
2022-07-31T01:01:32.439Z,98723.95
2022-07-31T01:04:34.635Z,98724.76
2022-07-31T01:07:37.664Z,98721.98
2022-07-31T01:10:49.983Z,98717.00
2022-07-31T01:13:58.423Z,98722.17
2022-07-31T01:17:01.342Z,98715.97
2022-07-31T01:20:04.498Z,98718.11
2022-07-31T01:23:18.881Z,98716.60
2022-07-31T01:26:33.421Z,98714.23
2022-07-31T01:29:41.728Z,98716.23
2022-07-31T01:32:48.556Z,98715.39
2022-07-31T01:36:05.837Z,98712.14
2022-07-31T01:39:07.876Z,98715.09
2022-07-31T01:42:13.746Z,98714.77
2022-07-31T01:45:16.433Z,98711.54
2022-07-31T01:48:18.848Z,98710.23
2022-07-31T01:51:21.938Z,98705.30
2022-07-31T01:54:24.034Z,98698.70
2022-07-31T01:57:26.627Z,98695.70
2022-07-31T02:00:33.929Z,98696.02
2022-07-31T02:03:43.867Z,98698.00
2022-07-31T02:06:49.475Z,98690.11
2022-07-31T02:09:58.725Z,98686.52
2022-07-31T02:13:02.868Z,98681.84
2022-07-31T02:16:05.949Z,98677.55
2022-07-31T02:19:08.415Z,98676.41
2022-07-31T02:22:10.273Z,98676.10
2022-07-31T02:25:12.065Z,98677.36
2022-07-31T02:28:16.380Z,98677.55
2022-07-31T02:31:18.676Z,98676.59
2022-07-31T02:34:20.521Z,98675.92
2022-07-31T02:37:33.646Z,98677.06
2022-07-31T02:40:36.729Z,98678.03
2022-07-31T02:43:39.053Z,98675.02
2022-07-31T02:46:43.151Z,98678.21
2022-07-31T02:49:48.152Z,98672.08
2022-07-31T02:52:49.816Z,98668.51
2022-07-31T02:55:51.848Z,98669.86
2022-07-31T02:58:53.499Z,98670.51
2022-07-31T03:01:56.232Z,98672.65
2022-07-31T03:04:57.859Z,98669.55
2022-07-31T03:08:00.184Z,98666.45
2022-07-31T03:11:02.097Z,98667.57
2022-07-31T03:14:04.663Z,98666.22
2022-07-31T03:17:07.018Z,98662.23
2022-07-31T03:20:09.793Z,98656.52
2022-07-31T03:23:13.136Z,98658.67
2022-07-31T03:26:16.021Z,98657.46
2022-07-31T03:29:42.431Z,98656.49
2022-07-31T03:32:39.485Z,98653.31
2022-07-31T03:35:44.650Z,98650.13
2022-07-31T03:38:50.467Z,98645.58
2022-07-31T03:41:53.410Z,98645.41
2022-07-31T03:44:55.430Z,98645.35
2022-07-31T03:47:57.412Z,98643.84
2022-07-31T03:50:59.245Z,98642.41
2022-07-31T03:54:01.093Z,98643.14
2022-07-31T03:57:03.564Z,98636.79
2022-07-31T04:00:07.327Z,98641.08
2022-07-31T04:03:19.018Z,98641.52
2022-07-31T04:06:20.755Z,98642.41
2022-07-31T04:09:22.638Z,98640.73
2022-07-31T04:12:24.942Z,98644.87
2022-07-31T04:15:26.730Z,98644.80
2022-07-31T04:18:28.645Z,98643.64
2022-07-31T04:21:30.421Z,98644.92
2022-07-31T04:24:32.242Z,98647.48
2022-07-31T04:27:36.173Z,98649.12
2022-07-31T04:30:50.580Z,98657.48
2022-07-31T04:33:56.292Z,98662.92
2022-07-31T04:36:59.001Z,98665.64
2022-07-31T04:40:00.877Z,98666.05
2022-07-31T04:43:02.574Z,98665.08
2022-07-31T04:46:04.477Z,98664.04
2022-07-31T04:49:19.197Z,98664.61
2022-07-31T04:52:21.055Z,98666.77
2022-07-31T04:55:22.912Z,98667.58
2022-07-31T04:58:24.705Z,98668.88
2022-07-31T05:01:26.549Z,98669.45
2022-07-31T05:04:28.932Z,98673.27
2022-07-31T05:07:30.630Z,98674.63
2022-07-31T05:10:50.872Z,98675.52
2022-07-31T05:13:58.099Z,98678.77
2022-07-31T05:16:59.889Z,98683.00
2022-07-31T05:20:01.791Z,98682.91
2022-07-31T05:23:06.689Z,98686.35
2022-07-31T05:26:09.898Z,98682.94
2022-07-31T05:29:12.105Z,98682.86
2022-07-31T05:32:14.047Z,98685.70
2022-07-31T05:35:16.192Z,98686.30
2022-07-31T05:38:17.995Z,98681.39
2022-07-31T05:41:19.961Z,98677.77
2022-07-31T05:44:21.876Z,98677.27
2022-07-31T05:47:23.592Z,98678.92
2022-07-31T05:50:25.514Z,98676.64
2022-07-31T05:53:27.449Z,98676.73
2022-07-31T05:56:29.219Z,98675.61
2022-07-31T05:59:32.432Z,98680.83
2022-07-31T06:02:35.224Z,98687.30
2022-07-31T06:05:36.975Z,98687.60
2022-07-31T06:08:38.648Z,98689.40
2022-07-31T06:11:40.831Z,98694.34
2022-07-31T06:14:42.623Z,98701.80
2022-07-31T06:17:45.163Z,98711.06
2022-07-31T06:20:47.954Z,98715.55
2022-07-31T06:23:49.596Z,98717.17
2022-07-31T06:26:51.775Z,98721.75
2022-07-31T06:29:54.213Z,98726.00
2022-07-31T06:32:56.165Z,98725.25
2022-07-31T06:35:57.910Z,98723.05
2022-07-31T06:38:59.720Z,98723.05
2022-07-31T06:42:01.823Z,98721.33
2022-07-31T06:45:04.125Z,98722.55
2022-07-31T06:48:06.248Z,98723.98
2022-07-31T06:51:29.901Z,98727.58
2022-07-31T06:54:29.921Z,98725.48
2022-07-31T06:57:31.797Z,98732.92
2022-07-31T07:00:33.682Z,98732.15
2022-07-31T07:03:35.443Z,98734.36
2022-07-31T07:06:37.270Z,98738.92
2022-07-31T07:09:39.123Z,98745.94
2022-07-31T07:12:40.817Z,98749.05
2022-07-31T07:15:43.089Z,98754.50
2022-07-31T07:18:45.190Z,98753.72
2022-07-31T07:21:47.175Z,98754.27
2022-07-31T07:24:48.830Z,98759.33
2022-07-31T07:27:50.596Z,98761.91
2022-07-31T07:30:52.400Z,98758.76
2022-07-31T07:33:55.978Z,98764.89
2022-07-31T07:36:57.723Z,98768.45
2022-07-31T07:40:03.771Z,98772.42
2022-07-31T07:43:06.492Z,98775.81
2022-07-31T07:46:08.399Z,98773.96
2022-07-31T07:49:10.133Z,98776.95
2022-07-31T07:52:12.427Z,98780.48
2022-07-31T07:55:14.529Z,98777.31
2022-07-31T07:58:17.055Z,98777.65
2022-07-31T08:01:19.980Z,98781.83
2022-07-31T08:04:21.775Z,98786.96
2022-07-31T08:07:42.872Z,98788.41
2022-07-31T08:10:45.055Z,98789.48
2022-07-31T08:13:50.643Z,98798.09
2022-07-31T08:16:53.907Z,98802.73
2022-07-31T08:19:55.959Z,98809.14
2022-07-31T08:22:57.703Z,98812.85
2022-07-31T08:25:59.774Z,98815.85
2022-07-31T08:29:07.697Z,98820.20
2022-07-31T08:32:09.676Z,98822.61
2022-07-31T08:35:11.419Z,98824.02
2022-07-31T08:38:13.159Z,98827.88
2022-07-31T08:41:15.336Z,98832.37
2022-07-31T08:44:17.421Z,98832.59
2022-07-31T08:47:28.185Z,98833.86
2022-07-31T08:50:31.210Z,98834.08
2022-07-31T08:53:36.857Z,98835.02
2022-07-31T08:56:39.107Z,98840.73
2022-07-31T08:59:43.486Z,98842.68
2022-07-31T09:02:45.824Z,98841.43
2022-07-31T09:05:49.454Z,98840.42
2022-07-31T09:08:51.696Z,98843.69
2022-07-31T09:11:54.972Z,98843.21
2022-07-31T09:14:56.925Z,98845.56
2022-07-31T09:17:58.677Z,98843.86
2022-07-31T09:21:05.891Z,98845.50
2022-07-31T09:24:10.375Z,98849.80
2022-07-31T09:27:14.092Z,98853.23
2022-07-31T09:30:16.004Z,98853.23
2022-07-31T09:33:19.580Z,98853.67
2022-07-31T09:36:25.131Z,98850.27
2022-07-31T09:39:27.998Z,98849.99
2022-07-31T09:42:56.053Z,98848.88
2022-07-31T09:45:59.480Z,98850.84
2022-07-31T09:49:01.164Z,98853.73
2022-07-31T09:52:02.973Z,98852.27
2022-07-31T09:55:15.496Z,98857.04
2022-07-31T09:58:18.697Z,98860.23
2022-07-31T10:01:20.602Z,98867.11
2022-07-31T10:04:22.951Z,98867.77
2022-07-31T10:07:32.623Z,98870.13
2022-07-31T10:10:35.392Z,98872.21
2022-07-31T10:13:40.621Z,98875.15
2022-07-31T10:16:45.320Z,98875.54
2022-07-31T10:19:50.029Z,98877.20
2022-07-31T10:22:57.672Z,98884.23
2022-07-31T10:26:00.927Z,98882.61
2022-07-31T10:29:02.888Z,98883.16
2022-07-31T10:32:06.184Z,98884.31
2022-07-31T10:35:08.529Z,98882.27
2022-07-31T10:38:21.411Z,98885.16
2022-07-31T10:41:55.252Z,98885.25
2022-07-31T10:45:08.729Z,98887.52
2022-07-31T10:48:11.810Z,98890.17
2022-07-31T10:51:13.976Z,98885.56
2022-07-31T10:54:15.826Z,98883.15
2022-07-31T10:57:23.658Z,98885.81
2022-07-31T11:00:28.371Z,98888.11
2022-07-31T11:03:46.674Z,98889.02
2022-07-31T11:06:50.471Z,98888.27
2022-07-31T11:09:53.239Z,98892.95
2022-07-31T11:13:08.852Z,98893.63
2022-07-31T11:16:10.642Z,98899.91
2022-07-31T11:19:13.503Z,98901.24
2022-07-31T11:22:31.478Z,98903.32
2022-07-31T11:25:35.965Z,98904.55
2022-07-31T11:28:37.734Z,98909.86
2022-07-31T11:31:39.481Z,98909.83
2022-07-31T11:34:48.829Z,98907.64
2022-07-31T11:37:58.149Z,98909.44
2022-07-31T11:41:00.363Z,98908.13
2022-07-31T11:44:03.436Z,98915.53
2022-07-31T11:48:09.706Z,98916.52
2022-07-31T11:50:31.088Z,98916.36
2022-07-31T11:53:41.268Z,98916.95
2022-07-31T11:56:43.055Z,98923.45
2022-07-31T11:59:46.553Z,98923.89
2022-07-31T12:02:51.659Z,98927.05
2022-07-31T12:05:53.684Z,98929.09
2022-07-31T12:08:55.496Z,98928.91
2022-07-31T12:11:57.779Z,98932.17
2022-07-31T12:14:59.665Z,98931.71
2022-07-31T12:18:03.899Z,98932.73
2022-07-31T12:21:05.877Z,98931.02
2022-07-31T12:24:15.195Z,98933.20
2022-07-31T12:27:18.610Z,98930.31
2022-07-31T12:30:29.892Z,98935.95
2022-07-31T12:33:42.850Z,98938.88
2022-07-31T12:36:44.569Z,98939.81
2022-07-31T12:39:59.534Z,98941.91
2022-07-31T12:43:03.190Z,98944.73
2022-07-31T12:46:07.987Z,98939.21
2022-07-31T12:49:10.933Z,98940.52
2022-07-31T12:52:13.058Z,98937.80
2022-07-31T12:55:17.367Z,98940.75
2022-07-31T12:58:20.134Z,98942.02
2022-07-31T13:01:21.852Z,98943.65
2022-07-31T13:04:23.586Z,98945.07
2022-07-31T13:07:25.525Z,98949.00
2022-07-31T13:10:31.852Z,98948.16
2022-07-31T13:13:34.116Z,98951.36
2022-07-31T13:16:36.007Z,98949.98
2022-07-31T13:19:37.811Z,98950.77
2022-07-31T13:22:39.623Z,98952.02
2022-07-31T13:25:42.102Z,98953.77
2022-07-31T13:28:43.998Z,98950.34
2022-07-31T13:31:46.744Z,98948.92
2022-07-31T13:34:49.102Z,98946.36
2022-07-31T13:38:12.772Z,98950.76
2022-07-31T13:41:20.990Z,98948.54
2022-07-31T13:44:22.831Z,98952.91
2022-07-31T13:47:24.536Z,98956.55
2022-07-31T13:50:26.298Z,98956.33
2022-07-31T13:53:28.029Z,98960.09
2022-07-31T13:56:41.776Z,98964.12
2022-07-31T13:59:44.987Z,98960.19
2022-07-31T14:02:46.870Z,98960.50
2022-07-31T14:05:50.027Z,98964.55
2022-07-31T14:08:52.986Z,98965.68
2022-07-31T14:11:54.714Z,98966.89
2022-07-31T14:14:58.307Z,98966.00
2022-07-31T14:18:02.360Z,98972.52
2022-07-31T14:21:07.549Z,98967.16
2022-07-31T14:24:09.342Z,98963.39
2022-07-31T14:27:11.298Z,98969.64
2022-07-31T14:30:20.002Z,98971.66
2022-07-31T14:33:21.931Z,98973.16
2022-07-31T14:36:23.998Z,98973.14
2022-07-31T14:39:25.719Z,98973.29
2022-07-31T14:42:27.404Z,98975.23
2022-07-31T14:45:29.220Z,98975.00
2022-07-31T14:48:31.068Z,98976.55
2022-07-31T14:51:32.946Z,98978.05
2022-07-31T14:54:34.883Z,98978.69
2022-07-31T14:57:36.958Z,98979.54
2022-07-31T15:00:38.737Z,98983.42
2022-07-31T15:03:40.434Z,98982.35
2022-07-31T15:06:56.231Z,98979.80
2022-07-31T15:10:05.133Z,98987.52
2022-07-31T15:13:06.927Z,98986.16
2022-07-31T15:16:09.555Z,98987.22
2022-07-31T15:19:12.201Z,98989.85
2022-07-31T15:22:17.508Z,98993.92
2022-07-31T15:25:19.474Z,98998.02
2022-07-31T15:28:21.278Z,98996.24
2022-07-31T15:31:23.927Z,98998.05
2022-07-31T15:34:25.706Z,99000.17
2022-07-31T15:37:27.400Z,99001.84
2022-07-31T15:40:29.671Z,99003.46
2022-07-31T15:43:35.102Z,99006.07
2022-07-31T15:46:36.818Z,99008.05
2022-07-31T15:49:44.099Z,99012.75
2022-07-31T15:52:46.824Z,99013.27
2022-07-31T15:55:48.609Z,99012.31
2022-07-31T15:58:53.804Z,99012.56
2022-07-31T16:01:55.863Z,99013.38
2022-07-31T16:05:11.463Z,99015.74
2022-07-31T16:08:29.794Z,99013.14
2022-07-31T16:12:03.510Z,99012.28
2022-07-31T16:14:58.914Z,99014.62
2022-07-31T16:18:01.372Z,99019.84
2022-07-31T16:21:03.299Z,99017.05
2022-07-31T16:24:05.569Z,99017.27
2022-07-31T16:27:07.628Z,99014.39
2022-07-31T16:30:10.041Z,99010.96
2022-07-31T16:33:12.063Z,99012.59
2022-07-31T16:36:13.817Z,99015.92
2022-07-31T16:39:21.742Z,99014.30
2022-07-31T16:42:23.613Z,99012.85
2022-07-31T16:45:25.404Z,99013.30
2022-07-31T16:48:27.251Z,99010.90
2022-07-31T16:51:29.169Z,99012.94
2022-07-31T16:54:31.027Z,99011.77
2022-07-31T16:57:32.848Z,99014.65
2022-07-31T17:00:34.726Z,99018.00
2022-07-31T17:04:01.035Z,99018.23
2022-07-31T17:06:58.590Z,99023.35
2022-07-31T17:10:00.318Z,99016.61
2022-07-31T17:13:02.074Z,99018.55
2022-07-31T17:16:04.135Z,99020.99
2022-07-31T17:19:05.978Z,99020.74
2022-07-31T17:22:08.389Z,99021.34
2022-07-31T17:25:13.493Z,99022.40
2022-07-31T17:28:15.547Z,99020.69
2022-07-31T17:31:18.648Z,99024.45
2022-07-31T17:34:20.493Z,99026.00
2022-07-31T17:37:23.894Z,99028.75
2022-07-31T17:40:42.637Z,99028.82
2022-07-31T17:43:50.708Z,99033.70
2022-07-31T17:46:55.244Z,99034.07
2022-07-31T17:49:59.859Z,99035.70
2022-07-31T17:53:02.006Z,99037.84
2022-07-31T17:56:05.401Z,99039.58
2022-07-31T17:59:07.471Z,99038.38
2022-07-31T18:02:09.993Z,99038.84
2022-07-31T18:05:12.773Z,99037.70
2022-07-31T18:08:14.767Z,99039.23
2022-07-31T18:11:17.028Z,99039.46
2022-07-31T18:14:18.959Z,99042.56
2022-07-31T18:17:20.853Z,99039.79
2022-07-31T18:20:22.703Z,99046.85
2022-07-31T18:23:29.466Z,99050.32
2022-07-31T18:26:35.473Z,99051.82
2022-07-31T18:29:37.727Z,99052.59
2022-07-31T18:32:39.520Z,99054.85
2022-07-31T18:35:42.825Z,99054.95
2022-07-31T18:38:44.543Z,99055.95
2022-07-31T18:41:49.039Z,99054.12
2022-07-31T18:44:51.387Z,99057.44
2022-07-31T18:47:53.462Z,99059.08
2022-07-31T18:51:02.967Z,99062.52
2022-07-31T18:54:05.860Z,99065.34
2022-07-31T18:57:08.054Z,99065.80
2022-07-31T19:00:10.817Z,99070.30
2022-07-31T19:03:13.135Z,99074.61
2022-07-31T19:06:15.007Z,99076.24
2022-07-31T19:09:19.299Z,99075.50
2022-07-31T19:12:21.027Z,99079.96
2022-07-31T19:15:22.787Z,99084.50
2022-07-31T19:18:28.717Z,99084.70
2022-07-31T19:21:42.189Z,99090.90
2022-07-31T19:24:44.764Z,99088.61
2022-07-31T19:27:47.973Z,99092.31
2022-07-31T19:30:50.495Z,99091.77
2022-07-31T19:33:52.613Z,99095.79
2022-07-31T19:36:54.522Z,99099.70
2022-07-31T19:39:56.333Z,99097.59
2022-07-31T19:42:59.793Z,99096.04
2022-07-31T19:46:11.728Z,99094.07
2022-07-31T19:49:14.629Z,99093.97
2022-07-31T19:52:16.542Z,99093.42
2022-07-31T19:55:18.462Z,99096.30
2022-07-31T19:58:21.354Z,99092.92
2022-07-31T20:01:23.314Z,99089.42
2022-07-31T20:04:25.358Z,99090.01
2022-07-31T20:07:32.565Z,99090.83
2022-07-31T20:10:34.930Z,99088.14
2022-07-31T20:13:39.212Z,99086.85
2022-07-31T20:16:41.454Z,99093.21
2022-07-31T20:20:12.548Z,99089.52
2022-07-31T20:23:06.431Z,99086.48
2022-07-31T20:26:12.949Z,99086.95
2022-07-31T20:29:14.921Z,99091.50
2022-07-31T20:32:16.907Z,99092.52
2022-07-31T20:35:31.228Z,99097.21
2022-07-31T20:38:47.480Z,99096.00
2022-07-31T20:41:49.461Z,99097.67
2022-07-31T20:44:51.128Z,99098.38
2022-07-31T20:47:53.287Z,99096.69
2022-07-31T20:50:54.975Z,99098.45
2022-07-31T20:53:56.841Z,99099.48
2022-07-31T20:56:58.639Z,99098.39
2022-07-31T21:00:00.442Z,99095.61
2022-07-31T21:03:02.335Z,99096.91
2022-07-31T21:06:04.933Z,99092.79
2022-07-31T21:09:06.781Z,99091.45
2022-07-31T21:12:09.736Z,99089.23
2022-07-31T21:15:40.939Z,99090.16
2022-07-31T21:18:35.348Z,99091.70
2022-07-31T21:21:38.165Z,99096.71
2022-07-31T21:24:40.182Z,99090.38
2022-07-31T21:27:42.720Z,99090.95
2022-07-31T21:30:46.046Z,99093.14
2022-07-31T21:33:48.996Z,99093.34
2022-07-31T21:36:51.059Z,99095.17
2022-07-31T21:39:52.967Z,99094.28
2022-07-31T21:42:57.356Z,99091.91
2022-07-31T21:46:02.101Z,99092.28
2022-07-31T21:49:04.164Z,99093.58
2022-07-31T21:52:07.251Z,99098.96
2022-07-31T21:55:09.671Z,99097.05
2022-07-31T21:58:12.776Z,99100.35
2022-07-31T22:01:15.426Z,99097.68
2022-07-31T22:04:17.580Z,99099.59
2022-07-31T22:07:34.680Z,99100.29
2022-07-31T22:10:36.454Z,99104.01
2022-07-31T22:13:38.407Z,99101.80
2022-07-31T22:16:40.111Z,99100.39
2022-07-31T22:19:47.239Z,99099.50
2022-07-31T22:22:49.840Z,99101.09
2022-07-31T22:25:51.768Z,99104.90
2022-07-31T22:28:53.842Z,99108.41
2022-07-31T22:31:55.807Z,99106.38
2022-07-31T22:34:57.598Z,99109.19
2022-07-31T22:37:59.420Z,99109.25
2022-07-31T22:41:01.693Z,99108.16
2022-07-31T22:44:13.153Z,99102.03
2022-07-31T22:47:17.396Z,99100.67
2022-07-31T22:50:19.226Z,99102.80
2022-07-31T22:53:21.066Z,99098.45
2022-07-31T22:56:22.948Z,99105.12
2022-07-31T22:59:24.902Z,99102.83
2022-07-31T23:02:27.283Z,99103.44
2022-07-31T23:05:29.357Z,99102.29
2022-07-31T23:08:53.788Z,99104.77
2022-07-31T23:12:00.612Z,99102.71
2022-07-31T23:15:02.257Z,99104.33
2022-07-31T23:18:04.181Z,99105.05
2022-07-31T23:21:08.308Z,99105.70
2022-07-31T23:24:10.908Z,99106.28
2022-07-31T23:27:13.389Z,99107.73
2022-07-31T23:30:15.378Z,99106.40
2022-07-31T23:33:17.199Z,99105.55
2022-07-31T23:36:19.579Z,99107.58
2022-07-31T23:39:23.258Z,99105.87
2022-07-31T23:42:40.321Z,99105.31
2022-07-31T23:45:42.206Z,99109.55
2022-07-31T23:48:45.918Z,99111.23
2022-07-31T23:51:47.685Z,99112.60
2022-07-31T23:54:49.492Z,99113.58
2022-07-31T23:57:51.162Z,99117.14
